CDT,Max TemperatureF,Mean TemperatureF,Min TemperatureF,Max Dew PointF,MeanDew PointF,Min DewpointF,Max Humidity, Mean Humidity, Min Humidity, Max Sea Level PressureIn, Mean Sea Level PressureIn, Min Sea Level PressureIn, Max VisibilityMiles, Mean VisibilityMiles, Min VisibilityMiles, Max Wind SpeedMPH, Mean Wind SpeedMPH, Max Gust SpeedMPH,PrecipitationIn, CloudCover, Events, WindDirDegrees
2013-10-1,85,75,65,66,63,59,87,66,44,30.15,30.10,30.04,10,10,10,12,2,16,0.00,3,,124
2013-10-2,84,74,64,65,62,58,93,68,43,30.16,30.11,30.06,10,10,10,10,2,14,T,5,,104
2013-10-3,83,74,65,64,62,60,87,69,51,30.13,30.09,30.06,10,10,10,13,4,16,0.00,4,,133
2013-10-4,87,77,66,67,64,61,87,68,48,30.15,30.09,30.06,10,10,10,12,3,15,0.00,3,,120
2013-10-5,89,78,67,66,64,63,93,69,45,30.11,30.05,29.98,10,10,10,13,5,16,0.00,0,,131
2013-10-6,81,69,57,70,66,55,93,80,67,29.98,29.91,29.85,10,8,2,23,4,29,0.69,7,Rain,235
2013-10-7,74,64,53,55,51,45,100,68,35,30.05,29.99,29.93,10,10,10,17,7,24,0.00,2,,4
2013-10-8,79,64,49,62,54,46,93,71,49,30.08,30.05,30.01,10,10,10,14,5,20,0.00,3,,62
2013-10-9,76,70,63,60,57,55,84,69,54,30.20,30.14,30.09,10,10,10,13,5,18,0.00,7,,83
2013-10-10,82,71,60,62,59,57,93,69,45,30.16,30.10,30.04,10,10,10,12,2,15,0.00,3,,347
2013-10-11,83,71,58,61,57,54,97,68,39,30.11,30.05,30.00,10,10,7,14,2,18,0.00,2,,328
2013-10-12,84,70,56,61,57,54,93,64,34,30.12,30.08,30.04,10,10,10,13,2,20,0.00,2,,352
2013-10-13,84,72,59,61,58,54,93,65,37,30.22,30.17,30.12,10,10,8,16,3,25,0.00,2,,22
2013-10-14,81,70,59,61,59,56,90,69,48,30.22,30.15,30.10,10,10,10,10,4,15,0.00,2,,77
2013-10-15,75,67,59,61,59,57,93,75,57,30.14,30.09,30.03,10,10,10,8,3,12,0.00,5,,84
2013-10-16,74,69,63,67,62,59,93,81,68,30.06,30.00,29.96,10,8,2,9,4,13,0.15,7,Rain,164
2013-10-17,72,64,56,67,64,55,100,88,76,30.02,29.96,29.92,10,6,2,16,5,20,0.52,8,Rain,261
2013-10-18,69,60,50,54,51,47,100,72,44,30.09,30.03,29.97,10,7,0,13,3,17,0.00,6,Fog,13
2013-10-19,70,59,48,56,53,47,93,75,57,30.06,30.00,29.96,10,10,10,13,4,17,0.02,5,Rain,290
2013-10-20,69,55,41,46,42,32,100,63,26,30.12,30.07,30.03,10,10,9,7,1,12,0.00,0,,2
2013-10-21,71,57,43,53,46,41,92,66,39,30.13,30.07,30.03,10,10,10,8,1,12,T,4,,129
2013-10-22,74,63,52,54,51,44,93,64,35,30.04,29.97,29.90,10,10,9,15,4,21,0.00,4,,299
2013-10-23,64,53,42,48,41,33,89,62,34,30.14,30.05,29.94,10,10,10,20,7,24,0.00,1,,311
2013-10-24,68,54,39,43,39,36,92,63,34,30.30,30.20,30.15,10,10,10,14,4,16,0.00,2,,316
2013-10-25,57,46,35,38,29,19,82,53,24,30.47,30.40,30.32,10,10,10,17,6,21,0.00,0,,10
2013-10-26,65,50,34,41,32,24,92,57,22,30.35,30.27,30.18,10,10,10,12,2,17,0.00,2,,207
2013-10-27,73,60,46,57,47,40,90,64,38,30.18,30.14,30.11,10,10,10,14,4,22,0.05,7,Rain,217
2013-10-28,70,64,57,58,56,53,90,76,61,30.27,30.21,30.14,10,10,6,9,2,10,0.09,6,Rain,109
2013-10-29,79,69,58,59,56,53,93,68,42,30.31,30.26,30.21,10,10,9,13,3,17,0.00,5,,186
2013-10-30,78,68,58,58,55,53,87,65,43,30.29,30.21,30.14,10,10,8,13,4,20,0.00,7,,159
2013-10-31,76,70,64,67,62,53,90,77,63,30.10,29.94,29.78,10,9,4,25,10,33,0.44,8,Rain,168